Time;durP1;ratioP1;P1;durP2;ratioP2;P2;SDS_P1;SDS_P2;PMS_P1;PMS_P2;Temp;Humidity;BMP_temperature;BMP_pressure;BME280_temperature;BME280_humidity;BME280_pressure;Samples;Min_cycle;Max_cycle;Signal;HPM_P1;HPM_P2
2020/12/28 00:00:40;;;;;;;2.53;1.50;;;6.00;99.90;;;;;;4140499;28;20743;-44
2020/12/28 00:02:42;;;;;;;2.23;1.57;;;5.90;99.90;;;;;;4140496;28;20038;-41
2020/12/28 00:04:43;;;;;;;3.93;1.53;;;5.80;99.90;;;;;;4140299;28;20292;-46
2020/12/28 00:06:48;;;;;;;3.07;1.97;;;5.80;99.90;;;;;;4139472;28;20914;-42
2020/12/28 00:08:49;;;;;;;1.83;1.23;;;5.70;99.90;;;;;;4140745;28;20338;-44
2020/12/28 00:10:50;;;;;;;2.67;1.50;;;5.50;99.90;;;;;;4139472;28;21170;-45
2020/12/28 00:12:51;;;;;;;2.93;1.63;;;5.50;99.90;;;;;;4140875;28;20259;-52
2020/12/28 00:14:52;;;;;;;3.50;1.40;;;5.40;99.90;;;;;;4139757;28;20850;-46
2020/12/28 00:16:53;;;;;;;2.90;1.40;;;5.30;99.90;;;;;;4123679;28;20338;-44
2020/12/28 00:18:55;;;;;;;3.13;1.50;;;5.30;99.90;;;;;;4139419;28;20275;-43
2020/12/28 00:20:56;;;;;;;2.83;1.23;;;5.20;99.90;;;;;;4141023;28;20271;-45
2020/12/28 00:22:57;;;;;;;2.77;1.77;;;5.10;99.90;;;;;;4139574;28;20314;-46
2020/12/28 00:24:58;;;;;;;2.63;1.50;;;5.10;99.90;;;;;;4140510;28;20311;-42
2020/12/28 00:27:00;;;;;;;2.63;1.50;;;5.00;99.90;;;;;;4139706;28;20271;-42
2020/12/28 00:29:01;;;;;;;2.63;1.50;;;4.90;99.90;;;;;;4140200;28;20660;-47
2020/12/28 00:31:02;;;;;;;3.33;1.70;;;4.80;99.90;;;;;;4140611;28;20329;-48
2020/12/28 00:33:03;;;;;;;3.63;1.83;;;4.80;99.90;;;;;;4140363;28;20275;-45
2020/12/28 00:35:07;;;;;;;4.40;1.67;;;4.80;99.90;;;;;;4140489;28;20300;-43
2020/12/28 00:37:08;;;;;;;4.83;2.00;;;4.80;99.90;;;;;;4138808;28;20267;-42
2020/12/28 00:39:09;;;;;;;3.60;2.10;;;4.80;99.90;;;;;;4123994;28;20304;-50
2020/12/28 00:41:11;;;;;;;4.07;1.93;;;4.80;99.90;;;;;;4139601;28;20663;-50
2020/12/28 00:43:12;;;;;;;5.43;2.50;;;4.70;99.90;;;;;;4141411;28;20275;-49
2020/12/28 00:45:14;;;;;;;3.67;1.90;;;4.70;99.90;;;;;;4139664;28;20817;-46
2020/12/28 00:47:15;;;;;;;2.53;1.80;;;4.80;99.90;;;;;;4140648;28;20334;-44
2020/12/28 00:49:16;;;;;;;3.80;2.07;;;4.90;99.90;;;;;;4139187;28;20326;-45
2020/12/28 00:51:17;;;;;;;2.43;1.57;;;4.90;99.90;;;;;;4140884;28;21054;-44
2020/12/28 00:53:18;;;;;;;3.70;1.90;;;5.20;99.90;;;;;;4139592;28;20272;-43
2020/12/28 00:55:19;;;;;;;3.87;2.20;;;5.30;99.90;;;;;;4141361;28;20798;-43
2020/12/28 00:57:20;;;;;;;4.37;2.40;;;5.40;99.90;;;;;;4139546;28;20731;-43
2020/12/28 00:59:21;;;;;;;3.20;1.87;;;5.40;99.90;;;;;;4140493;28;20381;-44
2020/12/28 01:01:22;;;;;;;3.90;1.63;;;5.50;99.90;;;;;;4140391;28;20794;-47
2020/12/28 01:03:23;;;;;;;2.83;1.83;;;5.50;99.90;;;;;;4139785;28;20283;-47
2020/12/28 01:05:24;;;;;;;3.27;1.80;;;5.50;99.90;;;;;;4140272;28;20759;-50
2020/12/28 01:07:26;;;;;;;4.33;2.10;;;5.40;99.90;;;;;;4139173;28;20287;-45
2020/12/28 01:09:27;;;;;;;6.73;3.90;;;5.30;99.90;;;;;;4123512;28;20338;-41
2020/12/28 01:11:28;;;;;;;7.53;4.30;;;5.30;99.90;;;;;;4141658;28;20295;-46
2020/12/28 01:13:29;;;;;;;4.73;2.33;;;5.30;99.90;;;;;;4143448;28;20311;-42
2020/12/28 01:15:30;;;;;;;4.60;2.90;;;5.30;99.90;;;;;;4141641;28;20365;-48
2020/12/28 01:17:31;;;;;;;3.93;2.53;;;5.30;99.90;;;;;;4143675;28;20338;-42
2020/12/28 01:19:32;;;;;;;3.93;2.00;;;5.30;99.90;;;;;;4142297;28;20279;-43
2020/12/28 01:21:33;;;;;;;2.53;1.47;;;5.30;99.90;;;;;;4143905;28;20337;-42
2020/12/28 01:23:34;;;;;;;2.37;1.47;;;5.30;99.90;;;;;;4142547;28;20697;-45
2020/12/28 01:25:35;;;;;;;2.57;1.57;;;5.30;99.90;;;;;;4143357;28;20629;-48
2020/12/28 01:27:36;;;;;;;3.67;2.00;;;5.40;99.90;;;;;;4142199;28;20707;-43
2020/12/28 01:29:37;;;;;;;4.67;1.57;;;5.50;99.90;;;;;;4142654;28;20317;-44
2020/12/28 01:31:38;;;;;;;3.40;1.80;;;5.60;99.90;;;;;;4142405;28;20935;-47
2020/12/28 01:33:40;;;;;;;2.27;1.30;;;5.70;99.90;;;;;;4142921;28;20317;-44
2020/12/28 01:35:41;;;;;;;3.07;1.47;;;5.70;99.90;;;;;;4143635;28;20714;-43
2020/12/28 01:37:42;;;;;;;2.80;1.70;;;5.70;99.90;;;;;;4141561;28;20271;-44
2020/12/28 01:39:43;;;;;;;4.70;1.37;;;5.70;99.90;;;;;;4143036;28;20492;-42
2020/12/28 01:41:44;;;;;;;2.97;1.53;;;5.60;99.90;;;;;;4141660;28;20275;-43
2020/12/28 01:43:45;;;;;;;1.67;1.13;;;5.50;99.90;;;;;;4143738;28;21213;-42
2020/12/28 01:45:46;;;;;;;2.37;1.57;;;5.50;99.90;;;;;;4141800;28;20420;-47
2020/12/28 01:47:47;;;;;;;2.53;1.40;;;5.50;99.90;;;;;;4143109;28;20287;-44
2020/12/28 01:49:48;;;;;;;3.13;1.63;;;5.40;99.90;;;;;;4141675;28;20809;-49
2020/12/28 01:51:50;;;;;;;4.67;1.60;;;5.40;99.90;;;;;;4142938;28;20279;-46
2020/12/28 01:53:52;;;;;;;2.17;1.43;;;5.30;99.90;;;;;;4141412;28;20338;-43
2020/12/28 01:56:00;;;;;;;2.77;1.53;;;5.30;99.90;;;;;;4143471;28;20739;-44
2020/12/28 01:58:01;;;;;;;2.73;1.50;;;5.30;99.90;;;;;;4141318;28;20326;-40
2020/12/28 02:00:05;;;;;;;3.20;1.60;;;5.30;99.90;;;;;;4142189;28;20314;-43
2020/12/28 02:02:09;;;;;;;3.60;1.47;;;5.30;99.90;;;;;;4142089;28;21158;-46
2020/12/28 02:04:11;;;;;;;3.13;1.40;;;5.30;99.90;;;;;;4141605;28;20267;-51
2020/12/28 02:06:14;;;;;;;3.43;1.50;;;5.40;99.90;;;;;;4142244;28;20291;-44
2020/12/28 02:08:16;;;;;;;2.50;1.23;;;5.30;99.90;;;;;;4142569;28;20811;-53
2020/12/28 02:10:17;;;;;;;5.83;2.37;;;5.30;99.90;;;;;;4142563;28;20256;-48
2020/12/28 02:12:20;;;;;;;5.87;2.77;;;5.30;99.90;;;;;;4141210;28;20944;-50
2020/12/28 02:14:21;;;;;;;4.90;2.20;;;5.20;99.90;;;;;;4142906;28;20295;-48
2020/12/28 02:16:22;;;;;;;4.70;1.90;;;5.10;99.90;;;;;;4141323;28;20279;-42
2020/12/28 02:18:23;;;;;;;4.73;2.03;;;5.20;99.90;;;;;;4141972;28;20271;-47
2020/12/28 02:20:25;;;;;;;3.27;1.77;;;5.20;99.90;;;;;;4140935;28;20357;-47
2020/12/28 02:22:26;;;;;;;3.20;1.70;;;5.30;99.90;;;;;;4141758;28;20276;-42
2020/12/28 02:24:27;;;;;;;3.10;1.73;;;5.30;99.90;;;;;;4141055;28;20334;-42
2020/12/28 02:26:28;;;;;;;2.80;1.87;;;5.30;99.90;;;;;;4143137;28;20279;-45
2020/12/28 02:28:29;;;;;;;2.50;1.17;;;5.40;99.90;;;;;;4141372;28;20260;-43
2020/12/28 02:30:30;;;;;;;3.03;1.50;;;5.50;99.90;;;;;;4142238;28;20275;-46
2020/12/28 02:32:31;;;;;;;2.20;1.37;;;5.60;99.90;;;;;;4140649;28;20329;-45
2020/12/28 02:34:33;;;;;;;2.80;1.73;;;5.60;99.90;;;;;;4141612;28;20337;-43
2020/12/28 02:36:34;;;;;;;2.60;1.43;;;5.70;99.90;;;;;;4141621;28;20255;-45
2020/12/28 02:38:36;;;;;;;2.27;1.07;;;5.80;99.90;;;;;;4142061;28;20766;-45
2020/12/28 02:40:38;;;;;;;1.83;1.23;;;5.80;99.90;;;;;;4141909;28;20317;-46
2020/12/28 02:42:39;;;;;;;2.03;1.10;;;5.90;99.90;;;;;;4141267;28;20310;-43
2020/12/28 02:44:40;;;;;;;2.97;1.30;;;6.20;99.90;;;;;;4142190;28;20772;-47
2020/12/28 02:46:41;;;;;;;2.40;1.33;;;6.30;99.90;;;;;;4140548;28;20321;-46
2020/12/28 02:48:42;;;;;;;2.53;1.50;;;6.40;99.90;;;;;;4142239;28;20597;-43
2020/12/28 02:50:43;;;;;;;2.20;1.33;;;6.30;99.90;;;;;;4140714;28;20341;-48
2020/12/28 02:52:45;;;;;;;2.47;1.27;;;6.30;99.90;;;;;;4141975;28;20744;-43
2020/12/28 02:54:46;;;;;;;4.17;2.00;;;6.30;99.90;;;;;;4140754;28;20756;-52
2020/12/28 02:56:47;;;;;;;3.33;1.60;;;6.30;99.90;;;;;;4142135;28;20080;-53
2020/12/28 02:58:48;;;;;;;4.27;1.60;;;6.20;99.90;;;;;;4141286;28;20272;-42
2020/12/28 03:00:49;;;;;;;4.57;1.40;;;6.20;99.90;;;;;;4142083;28;20283;-43
2020/12/28 03:02:50;;;;;;;2.67;1.50;;;6.30;99.90;;;;;;4140477;28;20825;-42
2020/12/28 03:04:51;;;;;;;2.73;1.57;;;6.30;99.90;;;;;;4141166;28;20329;-45
2020/12/28 03:06:52;;;;;;;1.53;1.10;;;6.20;99.90;;;;;;4141005;28;20482;-42
2020/12/28 03:08:53;;;;;;;1.77;1.03;;;6.30;99.90;;;;;;4141184;28;20041;-43
2020/12/28 03:10:55;;;;;;;2.53;1.43;;;6.30;99.90;;;;;;4141038;28;20096;-46
2020/12/28 03:12:56;;;;;;;3.53;1.73;;;6.20;99.90;;;;;;4141293;28;20759;-45
2020/12/28 03:14:57;;;;;;;2.90;1.80;;;6.20;99.90;;;;;;4141894;28;20042;-47
2020/12/28 03:16:58;;;;;;;2.90;1.50;;;6.20;99.90;;;;;;4140585;28;20279;-46
2020/12/28 03:18:59;;;;;;;2.87;1.47;;;6.10;99.90;;;;;;4141280;28;20334;-48
2020/12/28 03:21:00;;;;;;;1.93;1.37;;;6.10;99.90;;;;;;4140190;28;20038;-47
2020/12/28 03:23:01;;;;;;;2.53;1.47;;;6.10;99.90;;;;;;4141366;28;20038;-47
2020/12/28 03:25:03;;;;;;;2.73;1.30;;;6.10;99.90;;;;;;4139750;28;20050;-43
2020/12/28 03:27:04;;;;;;;4.00;1.37;;;6.10;99.90;;;;;;4141840;28;20518;-45
2020/12/28 03:29:05;;;;;;;3.67;1.40;;;6.20;99.90;;;;;;4139876;28;20081;-42
2020/12/28 03:31:06;;;;;;;2.17;1.20;;;6.30;99.90;;;;;;4140994;28;20042;-43
2020/12/28 03:33:07;;;;;;;1.80;1.20;;;6.30;99.90;;;;;;4139190;28;20255;-46
2020/12/28 03:35:08;;;;;;;2.23;1.27;;;6.40;99.90;;;;;;4141032;28;20046;-43
2020/12/28 03:37:09;;;;;;;2.40;1.27;;;6.40;99.90;;;;;;4140620;28;20477;-49
2020/12/28 03:39:10;;;;;;;1.23;1.10;;;6.50;99.90;;;;;;4140636;28;20092;-43
2020/12/28 03:41:13;;;;;;;3.13;1.80;;;6.50;99.90;;;;;;4140621;28;20096;-43
2020/12/28 03:43:14;;;;;;;3.60;1.37;;;6.50;99.90;;;;;;4140727;28;20876;-47
2020/12/28 03:45:15;;;;;;;2.47;1.40;;;6.40;99.90;;;;;;4140862;28;20088;-51
2020/12/28 03:47:16;;;;;;;2.27;1.37;;;6.40;99.90;;;;;;4140249;28;20489;-44
2020/12/28 03:49:17;;;;;;;2.20;1.20;;;6.40;99.90;;;;;;4141568;28;20474;-49
2020/12/28 03:51:18;;;;;;;2.13;1.30;;;6.40;99.90;;;;;;4140036;28;20449;-45
2020/12/28 03:53:19;;;;;;;1.90;1.20;;;6.40;99.90;;;;;;4141445;28;20030;-44
2020/12/28 03:55:20;;;;;;;2.70;1.60;;;6.40;99.90;;;;;;4139809;28;21096;-46
2020/12/28 03:57:22;;;;;;;2.70;1.40;;;6.40;99.90;;;;;;4141667;28;20096;-45
2020/12/28 03:59:23;;;;;;;2.73;1.50;;;6.40;99.90;;;;;;4139494;28;20403;-45
2020/12/28 04:01:25;;;;;;;2.27;1.07;;;6.40;99.90;;;;;;4141093;28;20049;-44
2020/12/28 04:03:26;;;;;;;4.97;1.47;;;6.40;99.90;;;;;;4139492;28;20045;-44
2020/12/28 04:05:27;;;;;;;2.17;1.27;;;6.40;99.90;;;;;;4140693;28;20387;-46
2020/12/28 04:07:28;;;;;;;1.77;1.40;;;6.40;99.90;;;;;;4139920;28;20073;-43
2020/12/28 04:09:29;;;;;;;3.80;1.23;;;6.40;99.90;;;;;;4140404;28;20084;-42
2020/12/28 04:11:30;;;;;;;2.37;1.40;;;6.50;99.90;;;;;;4140439;28;20049;-47
2020/12/28 04:13:31;;;;;;;2.67;1.67;;;6.40;99.90;;;;;;4140417;28;20034;-48
2020/12/28 04:15:32;;;;;;;2.60;1.30;;;6.40;99.90;;;;;;4140746;28;20050;-44
2020/12/28 04:17:33;;;;;;;1.90;1.20;;;6.40;99.90;;;;;;4139933;28;20103;-46
2020/12/28 04:19:34;;;;;;;2.83;1.50;;;6.40;99.90;;;;;;4140833;28;20046;-45
2020/12/28 04:21:35;;;;;;;2.53;1.30;;;6.30;99.90;;;;;;4139779;28;20104;-51
2020/12/28 04:23:36;;;;;;;3.43;1.57;;;6.30;99.90;;;;;;4140829;28;20085;-42
2020/12/28 04:25:38;;;;;;;2.00;1.07;;;6.30;99.90;;;;;;4139546;28;20101;-43
2020/12/28 04:27:39;;;;;;;2.57;1.63;;;6.30;99.90;;;;;;4141239;28;20034;-45
2020/12/28 04:29:40;;;;;;;2.80;1.30;;;6.30;99.90;;;;;;4139754;28;20038;-43
2020/12/28 04:31:41;;;;;;;3.67;1.60;;;6.30;99.90;;;;;;4141400;28;20482;-47
2020/12/28 04:33:42;;;;;;;3.17;1.67;;;6.30;99.90;;;;;;4139342;28;20717;-43
2020/12/28 04:35:44;;;;;;;3.40;1.30;;;6.30;99.90;;;;;;4140545;28;20100;-43
2020/12/28 04:37:45;;;;;;;2.97;1.87;;;6.40;99.90;;;;;;4139996;28;20160;-45
2020/12/28 04:39:46;;;;;;;2.43;1.60;;;6.30;99.90;;;;;;4140391;28;20030;-55
2020/12/28 04:41:47;;;;;;;2.10;1.30;;;6.30;99.90;;;;;;4140105;28;20042;-46
2020/12/28 04:43:48;;;;;;;3.70;1.33;;;6.30;99.90;;;;;;4139635;28;20108;-44
2020/12/28 04:45:51;;;;;;;4.67;1.80;;;6.40;99.90;;;;;;4142816;28;20050;-44
2020/12/28 04:47:54;;;;;;;2.23;1.30;;;6.40;99.90;;;;;;4142799;28;20088;-43
2020/12/28 04:49:55;;;;;;;2.53;1.70;;;6.50;99.90;;;;;;4143377;28;20041;-46
2020/12/28 04:51:57;;;;;;;3.27;1.90;;;6.40;99.90;;;;;;4143152;28;20084;-53
2020/12/28 04:53:58;;;;;;;4.20;1.87;;;6.40;99.90;;;;;;4143657;28;20046;-47
2020/12/28 04:56:00;;;;;;;2.87;1.97;;;6.40;99.90;;;;;;4142578;28;20038;-44
2020/12/28 04:58:01;;;;;;;2.13;1.57;;;6.30;99.90;;;;;;4144452;28;20798;-46
2020/12/28 05:00:04;;;;;;;2.90;1.60;;;6.30;99.90;;;;;;4142106;28;20037;-46
2020/12/28 05:02:06;;;;;;;2.33;1.50;;;6.20;99.90;;;;;;4143383;28;20498;-44
2020/12/28 05:04:07;;;;;;;3.37;1.87;;;6.20;99.90;;;;;;4141810;28;20049;-47
2020/12/28 05:06:09;;;;;;;2.20;1.70;;;6.30;99.90;;;;;;4143679;28;20054;-44
2020/12/28 05:08:11;;;;;;;3.37;1.67;;;6.30;99.90;;;;;;4142316;28;20072;-47
2020/12/28 05:10:27;;;;;;;2.83;1.73;;;6.40;99.90;;;;;;4143712;28;20367;-53
2020/12/28 05:12:28;;;;;;;3.13;1.87;;;6.30;99.90;;;;;;4142275;28;20054;-47
2020/12/28 05:14:31;;;;;;;2.33;1.70;;;6.30;99.90;;;;;;4143017;28;20486;-47
2020/12/28 05:16:32;;;;;;;2.77;1.43;;;6.20;99.90;;;;;;4142934;28;20049;-42
2020/12/28 05:18:34;;;;;;;2.90;1.57;;;6.10;99.90;;;;;;4142660;28;20104;-48
2020/12/28 05:20:35;;;;;;;3.97;1.60;;;6.10;99.90;;;;;;4142992;28;20053;-42
2020/12/28 05:22:36;;;;;;;2.80;1.80;;;6.10;99.90;;;;;;4142351;28;20030;-44
2020/12/28 05:24:37;;;;;;;2.97;2.10;;;6.00;99.90;;;;;;4143699;28;20076;-45
2020/12/28 05:26:44;;;;;;;2.23;1.77;;;6.00;99.90;;;;;;4141975;28;20795;-49
2020/12/28 05:28:49;;;;;;;2.03;1.13;;;6.00;99.90;;;;;;4143641;28;20038;-49
2020/12/28 05:30:51;;;;;;;3.37;2.10;;;5.90;99.90;;;;;;4141396;28;20080;-45
2020/12/28 05:32:53;;;;;;;4.30;2.17;;;5.90;99.90;;;;;;4142542;28;20049;-49
2020/12/28 05:34:54;;;;;;;3.27;2.03;;;5.80;99.90;;;;;;4141623;28;20038;-43
2020/12/28 05:36:57;;;;;;;2.70;2.03;;;5.80;99.90;;;;;;4143185;28;20034;-43
2020/12/28 05:39:00;;;;;;;4.17;1.77;;;5.80;99.90;;;;;;4142145;28;20430;-44
2020/12/28 05:41:04;;;;;;;2.87;1.90;;;5.80;99.90;;;;;;4143206;28;20042;-44
2020/12/28 05:43:05;;;;;;;3.83;1.93;;;5.80;99.90;;;;;;4141416;28;20093;-50
2020/12/28 05:45:09;;;;;;;3.57;2.07;;;5.80;99.90;;;;;;4142764;28;20042;-48
2020/12/28 05:47:16;;;;;;;2.00;1.33;;;5.70;99.90;;;;;;4142151;28;20485;-51
2020/12/28 05:49:19;;;;;;;4.03;2.30;;;5.70;99.90;;;;;;4142115;28;20054;-55
2020/12/28 05:51:21;;;;;;;2.97;1.87;;;5.70;99.90;;;;;;4142062;28;20030;-49
2020/12/28 05:53:25;;;;;;;3.10;1.60;;;5.60;99.90;;;;;;4142435;28;20026;-53
2020/12/28 05:55:29;;;;;;;3.03;1.63;;;5.60;99.90;;;;;;4142371;28;20260;-44
2020/12/28 05:57:30;;;;;;;2.33;1.40;;;5.70;99.90;;;;;;4141003;28;20272;-49
2020/12/28 05:59:32;;;;;;;4.73;2.63;;;5.60;99.90;;;;;;4142724;28;20346;-43
2020/12/28 06:01:38;;;;;;;3.03;2.00;;;5.50;99.90;;;;;;4141776;28;20275;-43
2020/12/28 06:03:45;;;;;;;2.67;2.00;;;5.50;99.90;;;;;;4143000;28;20267;-46
2020/12/28 06:05:54;;;;;;;8.93;5.47;;;5.40;99.90;;;;;;4141585;28;20100;-46
2020/12/28 06:07:55;;;;;;;2.47;1.60;;;5.40;99.90;;;;;;4142081;28;20391;-46
2020/12/28 06:09:57;;;;;;;2.70;1.40;;;5.50;99.90;;;;;;4141095;28;21154;-46
2020/12/28 06:12:06;;;;;;;2.27;1.27;;;5.60;99.90;;;;;;4142552;28;20058;-43
2020/12/28 06:14:14;;;;;;;1.87;1.47;;;5.80;99.90;;;;;;4140320;28;21209;-43
2020/12/28 06:16:23;;;;;;;3.23;2.03;;;5.80;99.90;;;;;;4143070;28;20034;-43
2020/12/28 06:18:25;;;;;;;5.77;2.40;;;5.80;99.90;;;;;;4140912;28;20280;-46
2020/12/28 06:20:30;;;;;;;3.37;2.07;;;5.80;99.90;;;;;;4142128;28;21337;-44
2020/12/28 06:22:32;;;;;;;3.23;1.80;;;5.70;99.90;;;;;;4140523;28;20096;-44
2020/12/28 06:24:34;;;;;;;3.40;1.80;;;5.60;99.90;;;;;;4141481;28;20343;-52
2020/12/28 06:26:35;;;;;;;4.67;2.03;;;5.60;99.90;;;;;;4141310;28;20354;-45
2020/12/28 06:28:36;;;;;;;7.93;2.50;;;5.60;99.90;;;;;;4142340;28;20675;-44
2020/12/28 06:30:37;;;;;;;5.23;2.37;;;5.50;99.90;;;;;;4141101;28;20034;-45
2020/12/28 06:32:39;;;;;;;2.50;1.90;;;5.50;99.90;;;;;;4142205;28;20264;-43
2020/12/28 06:34:43;;;;;;;3.73;1.90;;;5.50;99.90;;;;;;4141039;28;20323;-46
2020/12/28 06:36:44;;;;;;;3.53;1.90;;;5.50;99.90;;;;;;4141331;28;20280;-47
2020/12/28 06:38:59;;;;;;;3.33;2.23;;;5.70;99.90;;;;;;4141613;28;20763;-43
2020/12/28 06:41:00;;;;;;;4.27;2.20;;;5.80;99.90;;;;;;4141234;28;20267;-55
2020/12/28 06:43:08;;;;;;;4.70;2.03;;;6.00;99.90;;;;;;4141495;28;20298;-42
2020/12/28 06:45:14;;;;;;;3.50;2.03;;;5.90;99.90;;;;;;4141827;28;20112;-48
2020/12/28 06:47:18;;;;;;;5.33;2.63;;;5.90;99.90;;;;;;4140879;28;20157;-44
2020/12/28 06:49:19;;;;;;;6.50;2.37;;;6.10;99.90;;;;;;4140979;28;20275;-45
2020/12/28 06:51:25;;;;;;;5.80;2.60;;;6.40;99.90;;;;;;4142335;28;20474;-46
2020/12/28 06:53:28;;;;;;;4.07;2.13;;;6.60;99.90;;;;;;4141261;28;20069;-45
2020/12/28 06:55:29;;;;;;;3.30;1.93;;;7.00;99.90;;;;;;4141819;28;20037;-42
2020/12/28 06:57:30;;;;;;;2.30;1.60;;;7.20;99.90;;;;;;4140390;28;20088;-43
2020/12/28 06:59:32;;;;;;;2.30;1.40;;;7.50;99.90;;;;;;4141996;28;20034;-43
2020/12/28 07:01:33;;;;;;;1.93;0.90;;;7.60;99.90;;;;;;4139926;28;20084;-54
2020/12/28 07:03:35;;;;;;;1.53;0.70;;;7.90;99.90;;;;;;4124177;28;20038;-46
2020/12/28 07:05:37;;;;;;;1.17;0.87;;;8.00;99.90;;;;;;4140544;28;20482;-46
2020/12/28 07:07:42;;;;;;;1.13;0.63;;;8.00;99.90;;;;;;4140762;28;20037;-47
2020/12/28 07:09:46;;;;;;;1.37;1.00;;;8.20;99.90;;;;;;4140142;28;20497;-43
2020/12/28 07:11:48;;;;;;;2.53;0.97;;;8.40;99.90;;;;;;4141148;28;20084;-46
2020/12/28 07:13:49;;;;;;;1.50;1.20;;;8.30;99.90;;;;;;4139557;28;20046;-46
2020/12/28 07:15:50;;;;;;;1.50;1.10;;;8.40;99.90;;;;;;4141630;28;20429;-44
2020/12/28 07:17:51;;;;;;;2.23;1.47;;;8.50;99.90;;;;;;4140547;28;20076;-45
2020/12/28 07:20:03;;;;;;;2.80;1.90;;;8.30;99.90;;;;;;4140687;28;20821;-50
2020/12/28 07:22:04;;;;;;;5.37;3.53;;;8.40;99.90;;;;;;4140786;28;20022;-47
2020/12/28 07:24:07;;;;;;;4.57;3.80;;;8.40;99.90;;;;;;4140010;28;20119;-46
2020/12/28 07:26:12;;;;;;;7.13;5.87;;;8.50;99.90;;;;;;4140308;28;20062;-46
2020/12/28 07:28:13;;;;;;;7.77;5.23;;;8.30;99.90;;;;;;4140962;28;20065;-45
2020/12/28 07:30:14;;;;;;;6.83;4.77;;;8.20;99.90;;;;;;4140975;28;20041;-44
2020/12/28 07:32:17;;;;;;;8.03;5.07;;;8.10;99.90;;;;;;4140087;28;20101;-44
2020/12/28 07:34:19;;;;;;;7.80;5.00;;;8.00;99.90;;;;;;4141034;28;20117;-47
2020/12/28 07:36:24;;;;;;;5.53;3.47;;;7.90;99.90;;;;;;4140259;28;20077;-45
2020/12/28 07:38:26;;;;;;;3.70;2.43;;;7.80;99.90;;;;;;4141239;28;20053;-45
2020/12/28 07:40:27;;;;;;;4.63;2.63;;;7.80;99.90;;;;;;4140165;28;20446;-49
2020/12/28 07:42:28;;;;;;;6.07;2.40;;;7.80;99.90;;;;;;4141084;28;20080;-45
2020/12/28 07:44:29;;;;;;;3.57;2.03;;;7.90;99.90;;;;;;4139482;28;20490;-51
2020/12/28 07:46:37;;;;;;;2.10;1.60;;;8.00;99.90;;;;;;4140771;28;20189;-50
2020/12/28 07:48:42;;;;;;;4.93;2.60;;;8.00;99.90;;;;;;4140355;28;20092;-50
2020/12/28 07:50:44;;;;;;;4.17;2.40;;;8.20;99.90;;;;;;4140701;28;20041;-51
2020/12/28 07:53:00;;;;;;;3.83;2.20;;;8.30;99.90;;;;;;4140194;28;20042;-54
2020/12/28 07:55:20;;;;;;;5.43;3.00;;;8.40;99.90;;;;;;4140658;28;20042;-45
2020/12/28 07:57:46;;;;;;;4.47;3.10;;;8.60;99.90;;;;;;4139931;28;20038;-50
2020/12/28 07:59:47;;;;;;;3.90;1.93;;;8.50;99.90;;;;;;4120275;28;20067;-47
2020/12/28 08:01:52;;;;;;;4.87;2.20;;;8.30;99.90;;;;;;4140403;28;20375;-43
2020/12/28 08:03:59;;;;;;;2.90;1.70;;;8.10;99.90;;;;;;4140362;28;20108;-47
2020/12/28 08:06:10;;;;;;;3.67;2.20;;;8.00;99.90;;;;;;4139337;28;20116;-46
2020/12/28 08:08:23;;;;;;;10.68;5.90;;;8.00;99.90;;;;;;4141497;28;20033;-45
2020/12/28 08:10:24;;;;;;;4.40;2.50;;;7.90;99.90;;;;;;4139228;28;20084;-51
2020/12/28 08:12:30;;;;;;;5.43;3.17;;;7.90;99.90;;;;;;4140257;28;20116;-44
2020/12/28 08:14:31;;;;;;;7.23;3.50;;;7.90;99.90;;;;;;4138687;28;20088;-44
2020/12/28 08:16:32;;;;;;;7.77;4.73;;;7.90;99.90;;;;;;4140554;28;20042;-46
2020/12/28 08:18:50;;;;;;;7.50;4.30;;;8.10;99.90;;;;;;4139299;28;20367;-50
2020/12/28 08:20:58;;;;;;;6.40;3.50;;;8.30;99.90;;;;;;4145117;28;20050;-43
2020/12/28 08:22:59;;;;;;;4.07;2.57;;;8.30;99.90;;;;;;4127245;28;20034;-47
2020/12/28 08:25:02;;;;;;;5.13;2.80;;;8.40;99.90;;;;;;4145506;28;20485;-49
2020/12/28 08:27:04;;;;;;;4.63;2.40;;;8.40;99.90;;;;;;4144551;28;20054;-51
2020/12/28 08:29:08;;;;;;;3.97;2.77;;;8.40;99.90;;;;;;4145386;28;20112;-48
2020/12/28 08:31:10;;;;;;;7.80;3.17;;;8.70;99.90;;;;;;4144645;28;20034;-44
2020/12/28 08:33:16;;;;;;;5.77;2.53;;;8.90;99.90;;;;;;4144433;28;20045;-45
2020/12/28 08:35:17;;;;;;;3.77;1.90;;;8.90;99.90;;;;;;4145180;28;20045;-50
2020/12/28 08:37:19;;;;;;;4.90;2.50;;;8.80;99.90;;;;;;4143962;28;20100;-52
2020/12/28 08:39:25;;;;;;;9.80;4.17;;;8.70;99.90;;;;;;4145421;28;20050;-45
2020/12/28 08:41:26;;;;;;;5.83;3.10;;;8.70;99.90;;;;;;4144837;28;20384;-47
2020/12/28 08:43:27;;;;;;;6.43;4.07;;;8.70;99.90;;;;;;4146004;28;20088;-48
2020/12/28 08:45:28;;;;;;;4.17;2.40;;;8.70;99.90;;;;;;4144592;28;20052;-46
2020/12/28 08:47:30;;;;;;;4.07;2.70;;;8.70;99.90;;;;;;4145720;28;20107;-48
2020/12/28 08:49:33;;;;;;;5.90;2.80;;;8.80;99.90;;;;;;4144525;28;20037;-52
2020/12/28 08:51:34;;;;;;;4.50;2.17;;;8.80;99.90;;;;;;4145610;28;20556;-45
2020/12/28 08:53:35;;;;;;;4.20;2.67;;;8.80;99.90;;;;;;4144240;28;20099;-52
2020/12/28 08:55:36;;;;;;;4.43;2.37;;;8.80;99.90;;;;;;4145716;28;20046;-45
2020/12/28 08:57:38;;;;;;;6.30;3.33;;;8.80;99.90;;;;;;4144498;28;20569;-48
2020/12/28 08:59:39;;;;;;;6.40;3.57;;;8.80;99.90;;;;;;4145809;28;20041;-48
2020/12/28 09:01:40;;;;;;;4.53;2.70;;;8.80;99.90;;;;;;4144755;28;20041;-50
2020/12/28 09:03:41;;;;;;;3.43;2.30;;;8.80;99.90;;;;;;4145494;28;20089;-42
2020/12/28 09:05:42;;;;;;;5.13;2.57;;;8.80;99.90;;;;;;4145518;28;20108;-42
2020/12/28 09:07:43;;;;;;;4.60;2.87;;;8.80;99.90;;;;;;4144727;28;20503;-53
2020/12/28 09:09:47;;;;;;;3.57;2.47;;;8.90;99.90;;;;;;4145894;28;20088;-50
2020/12/28 09:11:48;;;;;;;3.23;2.20;;;9.00;99.90;;;;;;4143811;28;20092;-52
2020/12/28 09:13:49;;;;;;;5.20;3.37;;;9.10;99.90;;;;;;4145656;28;20034;-46
2020/12/28 09:15:50;;;;;;;6.60;4.20;;;9.10;99.90;;;;;;4143991;28;20528;-51
2020/12/28 09:17:52;;;;;;;8.10;3.73;;;9.00;99.90;;;;;;4145105;28;20095;-49
2020/12/28 09:19:53;;;;;;;14.23;4.00;;;9.00;99.90;;;;;;4144238;28;20080;-47
2020/12/28 09:21:56;;;;;;;4.40;2.73;;;9.00;99.90;;;;;;4145833;28;20034;-45
2020/12/28 09:23:57;;;;;;;4.63;2.80;;;9.10;99.90;;;;;;4144599;28;20084;-45
2020/12/28 09:25:59;;;;;;;4.30;2.77;;;9.30;99.90;;;;;;4145569;28;20037;-45
2020/12/28 09:28:00;;;;;;;2.63;1.63;;;9.40;99.90;;;;;;4126750;28;20092;-45
2020/12/28 09:30:06;;;;;;;1.60;1.30;;;9.60;99.90;;;;;;4145927;28;20153;-43
2020/12/28 09:32:08;;;;;;;1.93;1.40;;;9.70;99.90;;;;;;4141268;28;20604;-52
2020/12/28 09:34:09;;;;;;;2.57;1.50;;;9.80;99.90;;;;;;4142653;28;20034;-46
2020/12/28 09:36:10;;;;;;;2.93;1.57;;;9.90;99.90;;;;;;4142382;28;20033;-46
2020/12/28 09:38:11;;;;;;;2.03;1.53;;;9.90;99.90;;;;;;4142003;28;20108;-48
2020/12/28 09:40:12;;;;;;;2.17;1.90;;;10.00;99.90;;;;;;4141908;28;20088;-45
2020/12/28 09:42:13;;;;;;;2.77;1.77;;;10.00;99.90;;;;;;4142058;28;20034;-46
2020/12/28 09:44:14;;;;;;;4.10;2.23;;;10.00;99.90;;;;;;4142833;28;20034;-45
2020/12/28 09:46:19;;;;;;;5.80;2.50;;;10.00;99.90;;;;;;4141192;28;20076;-47
2020/12/28 09:48:20;;;;;;;2.57;1.97;;;9.90;99.90;;;;;;4142885;28;20482;-52
2020/12/28 09:50:22;;;;;;;3.13;2.07;;;9.90;99.90;;;;;;4140998;28;20096;-51
2020/12/28 09:52:23;;;;;;;3.33;2.20;;;9.90;99.90;;;;;;4142897;28;20482;-52
2020/12/28 09:54:24;;;;;;;3.63;2.43;;;9.90;99.90;;;;;;4140803;28;20096;-48
2020/12/28 09:56:25;;;;;;;2.40;1.40;;;9.80;99.90;;;;;;4142330;28;20038;-51
2020/12/28 09:58:26;;;;;;;2.40;1.73;;;9.80;99.90;;;;;;4140603;28;20038;-45
2020/12/28 10:00:27;;;;;;;2.93;1.60;;;9.80;99.90;;;;;;4142751;28;20089;-52
2020/12/28 10:02:28;;;;;;;5.23;2.23;;;9.80;99.90;;;;;;4123552;28;20038;-47
2020/12/28 10:04:30;;;;;;;3.93;2.33;;;9.80;99.90;;;;;;4142523;28;20549;-47
2020/12/28 10:06:31;;;;;;;3.07;2.00;;;9.90;99.90;;;;;;4141381;28;20538;-48
2020/12/28 10:08:32;;;;;;;3.93;1.80;;;9.90;99.90;;;;;;4141481;28;20045;-54
2020/12/28 10:10:33;;;;;;;2.93;1.90;;;9.90;99.90;;;;;;4141708;28;20076;-44
2020/12/28 10:12:39;;;;;;;3.63;1.83;;;9.90;99.90;;;;;;4140682;28;20050;-47
2020/12/28 10:14:40;;;;;;;2.63;1.90;;;9.90;99.90;;;;;;4141352;28;20057;-43
2020/12/28 10:16:41;;;;;;;4.17;2.03;;;9.80;99.90;;;;;;4140365;28;20042;-44
2020/12/28 10:18:42;;;;;;;3.67;2.30;;;9.80;99.90;;;;;;4141568;28;20042;-43
2020/12/28 10:20:44;;;;;;;2.83;1.93;;;9.80;99.90;;;;;;4140830;28;20099;-46
2020/12/28 10:22:45;;;;;;;3.80;1.90;;;9.80;99.90;;;;;;4142420;28;20026;-43
2020/12/28 10:24:46;;;;;;;2.50;1.63;;;9.70;99.90;;;;;;4141455;28;20033;-45
2020/12/28 10:26:52;;;;;;;4.03;2.20;;;9.80;99.90;;;;;;4141948;28;20080;-44
2020/12/28 10:28:54;;;;;;;3.33;2.30;;;9.80;99.90;;;;;;4140883;28;20500;-49
2020/12/28 10:30:55;;;;;;;4.10;1.70;;;9.80;99.90;;;;;;4142148;28;20025;-44
2020/12/28 10:32:56;;;;;;;2.83;1.83;;;9.80;99.90;;;;;;4140880;28;20029;-45
2020/12/28 10:34:57;;;;;;;3.27;2.30;;;9.80;99.90;;;;;;4141628;28;20045;-43
2020/12/28 10:36:59;;;;;;;3.07;1.97;;;9.80;99.90;;;;;;4140346;28;20038;-43
2020/12/28 10:39:00;;;;;;;3.77;2.33;;;9.90;99.90;;;;;;4141221;28;20092;-54
2020/12/28 10:41:02;;;;;;;3.43;1.90;;;9.90;99.90;;;;;;4140684;28;20077;-47
2020/12/28 10:43:03;;;;;;;3.50;1.70;;;10.00;99.90;;;;;;4140145;28;20041;-46
2020/12/28 10:45:05;;;;;;;4.53;1.60;;;10.10;99.90;;;;;;4141822;28;20100;-44